TimeEST,TemperatureF,Dew PointF,Humidity,Sea Level PressureIn,VisibilityMPH,Wind Direction,Wind SpeedMPH,Gust SpeedMPH,PrecipitationIn,Events,Conditions,WindDirDegrees,DateUTC
12:53 AM,39.0,36.0,89,29.95,7.0,SSW,5.8,-,0.01,Rain,Light Rain,200,2012-12-08 05:53:00
1:53 AM,39.0,37.0,93,29.93,7.0,SSW,4.6,-,0.03,Rain,Light Rain,200,2012-12-08 06:53:00
2:53 AM,39.0,37.0,93,29.92,7.0,SSW,3.5,-,0.02,Rain,Light Rain,200,2012-12-08 07:53:00
3:44 AM,39.2,37.4,93,29.89,6.0,South,3.5,-,0.02,Rain,Light Rain,190,2012-12-08 08:44:00
3:53 AM,39.0,37.0,93,29.91,5.0,Calm,Calm,-,0.02,Rain,Light Rain,0,2012-12-08 08:53:00
4:53 AM,39.0,37.0,93,29.89,7.0,SSW,5.8,-,0.01,,Overcast,200,2012-12-08 09:53:00
5:28 AM,39.2,37.4,93,29.86,6.0,Calm,Calm,-,N/A,,Overcast,0,2012-12-08 10:28:00
6:37 AM,39.2,37.4,93,29.85,5.0,South,3.5,-,0.00,,Overcast,180,2012-12-08 11:37:00
6:53 AM,39.9,37.9,93,29.87,6.0,SSW,4.6,-,0.00,,Overcast,200,2012-12-08 11:53:00
6:57 AM,39.2,37.4,93,29.85,5.0,South,4.6,-,N/A,,Overcast,190,2012-12-08 11:57:00
7:10 AM,39.2,37.4,93,29.85,6.0,South,4.6,-,N/A,,Overcast,190,2012-12-08 12:10:00
7:35 AM,39.2,37.4,93,29.84,10.0,South,5.8,-,N/A,,Overcast,190,2012-12-08 12:35:00
7:53 AM,39.9,37.9,93,29.86,10.0,South,6.9,-,N/A,,Overcast,190,2012-12-08 12:53:00
8:53 AM,41.0,37.9,89,29.84,10.0,South,8.1,-,0.00,,Overcast,190,2012-12-08 13:53:00
9:53 AM,43.0,39.0,86,29.83,10.0,SSW,15.0,-,0.00,,Overcast,200,2012-12-08 14:53:00
10:31 AM,42.8,39.2,87,29.79,10.0,SSW,11.5,-,N/A,,Mostly Cloudy,200,2012-12-08 15:31:00
10:53 AM,44.1,39.9,85,29.81,10.0,SSW,11.5,-,N/A,,Overcast,200,2012-12-08 15:53:00
11:04 AM,44.6,39.2,81,29.79,10.0,SSW,13.8,-,N/A,,Overcast,200,2012-12-08 16:04:00
11:23 AM,44.6,41.0,87,29.78,10.0,SSW,18.4,24.2,N/A,,Mostly Cloudy,200,2012-12-08 16:23:00
11:53 AM,46.0,42.1,86,29.79,10.0,SSW,12.7,-,N/A,,Overcast,210,2012-12-08 16:53:00
12:53 PM,48.0,44.1,86,29.77,10.0,South,10.4,-,N/A,,Overcast,190,2012-12-08 17:53:00
1:53 PM,51.1,45.0,80,29.78,10.0,SSW,11.5,-,N/A,,Overcast,200,2012-12-08 18:53:00
2:12 PM,51.8,44.6,76,29.77,10.0,SSW,9.2,-,N/A,,Overcast,210,2012-12-08 19:12:00
2:53 PM,52.0,45.0,77,29.79,10.0,SSW,5.8,-,N/A,,Overcast,210,2012-12-08 19:53:00
3:42 PM,51.8,44.6,76,29.81,10.0,West,6.9,-,0.00,,Overcast,260,2012-12-08 20:42:00
3:53 PM,52.0,44.1,74,29.83,10.0,West,6.9,-,0.00,,Overcast,260,2012-12-08 20:53:00
4:53 PM,50.0,44.1,80,29.86,10.0,WSW,5.8,-,N/A,,Overcast,250,2012-12-08 21:53:00
5:01 PM,50.0,44.6,82,29.85,10.0,WSW,5.8,-,N/A,,Overcast,250,2012-12-08 22:01:00
5:53 PM,48.9,44.1,83,29.90,10.0,NW,4.6,-,0.00,Rain,Light Rain,310,2012-12-08 22:53:00
6:53 PM,48.0,42.1,80,29.93,10.0,NW,8.1,-,0.00,,Overcast,310,2012-12-08 23:53:00
7:53 PM,45.0,42.1,90,29.97,10.0,WNW,8.1,16.1,0.00,,Overcast,300,2012-12-09 00:53:00
8:34 PM,44.6,39.2,81,29.98,10.0,NW,13.8,-,N/A,,Overcast,310,2012-12-09 01:34:00
8:46 PM,42.8,39.2,87,29.99,9.0,NW,12.7,24.2,0.01,,Overcast,310,2012-12-09 01:46:00
8:53 PM,42.1,39.0,89,30.01,10.0,WNW,9.2,-,0.01,,Overcast,300,2012-12-09 01:53:00
9:30 PM,41.0,37.4,87,30.02,10.0,NW,11.5,17.3,N/A,,Overcast,310,2012-12-09 02:30:00
9:39 PM,39.2,37.4,93,30.02,10.0,NW,13.8,20.7,N/A,,Overcast,310,2012-12-09 02:39:00
9:53 PM,39.9,35.1,83,30.06,10.0,NW,10.4,23.0,N/A,,Overcast,310,2012-12-09 02:53:00
10:10 PM,39.2,35.6,87,30.04,10.0,WNW,4.6,-,N/A,,Overcast,300,2012-12-09 03:10:00
10:53 PM,39.0,33.1,79,30.10,10.0,WNW,11.5,20.7,N/A,,Overcast,300,2012-12-09 03:53:00
11:15 PM,37.4,30.2,75,30.09,10.0,WNW,8.1,20.7,N/A,,Overcast,290,2012-12-09 04:15:00
11:53 PM,37.0,30.9,79,30.15,10.0,WNW,5.8,-,N/A,,Overcast,300,2012-12-09 04:53:00